createdAt,value
2022-09-07T00:00:43.933Z,0.90
2022-09-07T00:03:11.403Z,1.20
2022-09-07T00:05:45.295Z,1.07
2022-09-07T00:08:13.196Z,0.80
2022-09-07T00:10:40.497Z,0.90
2022-09-07T00:13:08.706Z,1.00
2022-09-07T00:15:39.369Z,0.70
2022-09-07T00:18:06.764Z,1.00
2022-09-07T00:20:34.098Z,0.80
2022-09-07T00:23:01.409Z,1.00
2022-09-07T00:25:31.801Z,0.90
2022-09-07T00:27:59.642Z,0.90
2022-09-07T00:30:26.944Z,0.90
2022-09-07T00:32:54.250Z,0.93
2022-09-07T00:35:21.618Z,0.90
2022-09-07T00:37:48.983Z,0.87
2022-09-07T00:40:16.419Z,1.20
2022-09-07T00:42:43.717Z,1.00
2022-09-07T00:45:17.798Z,0.80
2022-09-07T00:47:47.853Z,0.93
2022-09-07T00:50:24.769Z,0.90
2022-09-07T00:52:55.846Z,0.67
2022-09-07T00:55:23.285Z,0.80
2022-09-07T00:57:52.809Z,0.80
2022-09-07T01:00:20.172Z,1.10
2022-09-07T01:02:49.896Z,0.90
2022-09-07T01:05:22.536Z,0.80
2022-09-07T01:07:49.865Z,1.20
2022-09-07T01:10:17.364Z,0.77
2022-09-07T01:12:44.701Z,0.87
2022-09-07T01:15:12.388Z,0.83
2022-09-07T01:17:46.021Z,0.80
2022-09-07T01:20:17.138Z,0.87
2022-09-07T01:22:50.552Z,0.70
2022-09-07T01:25:26.985Z,0.87
2022-09-07T01:27:57.277Z,0.90
2022-09-07T01:30:25.339Z,0.70
2022-09-07T01:33:00.102Z,0.97
2022-09-07T01:35:40.099Z,0.80
2022-09-07T01:38:15.693Z,0.90
2022-09-07T01:40:49.002Z,0.90
2022-09-07T01:43:27.547Z,0.70
2022-09-07T01:45:57.486Z,0.90
2022-09-07T01:48:26.572Z,0.70
2022-09-07T01:50:58.757Z,0.93
2022-09-07T01:53:32.075Z,0.93
2022-09-07T01:56:01.457Z,0.80
2022-09-07T01:58:29.676Z,0.73
2022-09-07T02:01:08.768Z,0.80
2022-09-07T02:03:38.616Z,0.83
2022-09-07T02:06:16.494Z,0.70
2022-09-07T02:08:48.432Z,0.80
2022-09-07T02:11:18.745Z,0.80
2022-09-07T02:13:53.731Z,1.00
2022-09-07T02:16:24.003Z,0.70
2022-09-07T02:18:54.237Z,0.77
2022-09-07T02:21:24.854Z,0.77
2022-09-07T02:23:54.020Z,0.70
2022-09-07T02:26:22.970Z,0.60
2022-09-07T02:28:50.404Z,0.90
2022-09-07T02:31:18.038Z,0.70
2022-09-07T02:33:45.660Z,0.80
2022-09-07T02:36:13.924Z,0.90
2022-09-07T02:38:41.245Z,1.00
2022-09-07T02:41:28.487Z,0.80
2022-09-07T02:43:56.257Z,0.80
2022-09-07T02:46:31.496Z,0.80
2022-09-07T02:49:16.471Z,0.70
2022-09-07T02:51:56.310Z,0.80
2022-09-07T02:54:47.414Z,0.50
2022-09-07T02:57:33.504Z,0.60
2022-09-07T03:00:05.470Z,0.70
2022-09-07T03:02:43.357Z,0.80
2022-09-07T03:05:17.260Z,0.80
2022-09-07T03:07:47.763Z,0.80
2022-09-07T03:10:15.574Z,0.73
2022-09-07T03:12:47.465Z,0.70
2022-09-07T03:15:15.733Z,0.80
2022-09-07T03:17:43.485Z,0.60
2022-09-07T03:20:10.891Z,0.77
2022-09-07T03:22:38.239Z,0.70
2022-09-07T03:25:06.006Z,0.60
2022-09-07T03:27:33.681Z,0.77
2022-09-07T03:30:01.092Z,0.93
2022-09-07T03:32:32.066Z,0.60
2022-09-07T03:34:59.701Z,0.70
2022-09-07T03:37:27.326Z,0.80
2022-09-07T03:39:54.769Z,0.60
2022-09-07T03:42:22.422Z,0.80
2022-09-07T03:44:50.224Z,0.50
2022-09-07T03:47:18.026Z,0.70
2022-09-07T03:49:45.432Z,0.80
2022-09-07T03:52:12.777Z,0.53
2022-09-07T03:54:40.117Z,0.73
2022-09-07T03:57:07.705Z,0.70
2022-09-07T03:59:35.362Z,0.90
2022-09-07T04:02:02.943Z,0.70
2022-09-07T04:04:30.367Z,0.73
2022-09-07T04:06:57.699Z,0.63
2022-09-07T04:09:25.015Z,0.70
2022-09-07T04:11:52.347Z,0.93
2022-09-07T04:14:19.741Z,0.70
2022-09-07T04:16:47.354Z,0.77
2022-09-07T04:19:14.738Z,0.80
2022-09-07T04:21:44.280Z,0.70
2022-09-07T04:24:11.626Z,0.83
2022-09-07T04:26:39.024Z,0.83
2022-09-07T04:29:06.922Z,0.70
2022-09-07T04:31:35.464Z,0.70
2022-09-07T04:34:02.994Z,0.90
2022-09-07T04:36:30.342Z,0.63
2022-09-07T04:39:01.701Z,0.80
2022-09-07T04:41:30.938Z,0.70
2022-09-07T04:43:59.426Z,0.77
2022-09-07T04:46:27.946Z,0.80
2022-09-07T04:48:56.487Z,0.90
2022-09-07T04:51:25.035Z,0.70
2022-09-07T04:53:53.136Z,0.90
2022-09-07T04:56:21.232Z,0.80
2022-09-07T04:58:49.077Z,0.90
2022-09-07T05:01:18.028Z,0.70
2022-09-07T05:03:45.570Z,0.87
2022-09-07T05:06:13.098Z,0.90
2022-09-07T05:08:41.880Z,0.90
2022-09-07T05:11:09.860Z,1.00
2022-09-07T05:13:37.558Z,0.90
2022-09-07T05:16:15.498Z,0.80
2022-09-07T05:18:43.401Z,0.90
2022-09-07T05:21:12.073Z,0.87
2022-09-07T05:23:39.711Z,1.00
2022-09-07T05:26:07.254Z,1.00
2022-09-07T05:28:35.083Z,0.80
2022-09-07T05:31:21.453Z,0.80
2022-09-07T05:36:37.421Z,0.70
2022-09-07T05:39:05.477Z,0.83
2022-09-07T05:41:32.802Z,0.80
2022-09-07T05:46:48.298Z,1.00
2022-09-07T05:49:15.597Z,0.80
2022-09-07T05:51:42.909Z,0.83
2022-09-07T05:54:12.113Z,0.80
2022-09-07T05:56:39.399Z,1.13
2022-09-07T05:59:06.787Z,0.80
2022-09-07T06:01:35.580Z,0.87
2022-09-07T06:04:03.123Z,0.90
2022-09-07T06:06:30.498Z,1.00
2022-09-07T06:08:57.882Z,1.00
2022-09-07T06:11:26.877Z,0.80
2022-09-07T06:13:54.346Z,0.90
2022-09-07T06:16:21.996Z,1.00
2022-09-07T06:18:50.571Z,0.90
2022-09-07T06:21:19.151Z,0.90
2022-09-07T06:23:47.327Z,1.10
2022-09-07T06:26:15.214Z,0.80
2022-09-07T06:28:49.661Z,0.80
2022-09-07T06:31:18.888Z,0.87
2022-09-07T06:33:47.676Z,1.00
2022-09-07T06:36:19.319Z,0.80
2022-09-07T06:38:47.068Z,0.90
2022-09-07T06:44:03.569Z,0.73
2022-09-07T06:49:18.185Z,0.90
2022-09-07T06:51:45.545Z,0.70
2022-09-07T06:57:00.123Z,0.73
2022-09-07T06:59:27.522Z,1.00
2022-09-07T07:01:54.799Z,1.10
2022-09-07T07:04:22.197Z,1.10
2022-09-07T07:06:49.506Z,0.83
2022-09-07T07:09:16.839Z,0.90
2022-09-07T07:11:47.310Z,0.90
2022-09-07T07:14:15.375Z,0.97
2022-09-07T07:16:43.042Z,0.90
2022-09-07T07:19:10.444Z,1.03
2022-09-07T07:21:55.245Z,1.20
2022-09-07T07:24:25.146Z,1.23
2022-09-07T07:26:52.528Z,0.90
2022-09-07T07:29:20.021Z,1.27
2022-09-07T07:31:48.083Z,0.97
2022-09-07T07:34:15.422Z,1.00
2022-09-07T07:36:42.832Z,1.00
2022-09-07T07:42:00.322Z,1.20
2022-09-07T07:44:30.684Z,1.00
2022-09-07T07:46:58.003Z,1.30
2022-09-07T07:49:25.375Z,1.27
2022-09-07T07:54:43.861Z,1.97
2022-09-07T07:57:11.755Z,1.37
2022-09-07T07:59:39.513Z,1.30
2022-09-07T08:02:08.763Z,1.43
2022-09-07T08:04:36.881Z,1.50
2022-09-07T08:07:10.309Z,1.23
2022-09-07T08:09:41.838Z,1.20
2022-09-07T08:12:11.168Z,1.13
2022-09-07T08:14:41.877Z,1.67
2022-09-07T08:17:13.194Z,1.83
2022-09-07T08:19:40.825Z,1.50
2022-09-07T08:22:09.026Z,1.43
2022-09-07T08:24:36.359Z,1.40
2022-09-07T08:27:03.716Z,1.50
2022-09-07T08:29:34.502Z,1.67
2022-09-07T08:32:03.610Z,2.17
2022-09-07T08:34:30.884Z,2.27
2022-09-07T08:36:58.306Z,1.80
2022-09-07T08:39:25.673Z,2.30
2022-09-07T08:42:31.821Z,1.90
2022-09-07T08:45:05.586Z,1.50
2022-09-07T08:47:37.426Z,1.63
2022-09-07T08:50:23.245Z,1.63
2022-09-07T08:52:56.649Z,2.07
2022-09-07T08:55:29.095Z,1.73
2022-09-07T08:58:01.681Z,1.63
2022-09-07T09:00:30.019Z,1.83
2022-09-07T09:05:53.483Z,1.70
2022-09-07T09:08:34.500Z,2.10
2022-09-07T09:11:10.007Z,2.13
2022-09-07T09:13:55.976Z,1.70
2022-09-07T09:16:42.948Z,1.20
2022-09-07T09:19:19.443Z,1.63
2022-09-07T09:21:46.805Z,1.70
2022-09-07T09:24:19.154Z,1.97
2022-09-07T09:29:22.306Z,1.93
2022-09-07T09:31:49.566Z,1.37
2022-09-07T09:34:18.198Z,2.10
2022-09-07T09:36:48.177Z,1.90
2022-09-07T09:39:28.989Z,2.00
2022-09-07T09:41:57.058Z,1.90
2022-09-07T09:44:24.459Z,2.07
2022-09-07T09:49:42.299Z,1.20
2022-09-07T09:52:41.816Z,1.30
2022-09-07T09:55:33.225Z,1.30
2022-09-07T10:03:59.499Z,1.73
2022-09-07T10:06:28.616Z,1.30
2022-09-07T10:08:57.871Z,2.03
2022-09-07T10:14:35.949Z,1.40
2022-09-07T10:17:11.837Z,1.30
2022-09-07T10:19:40.432Z,1.20
2022-09-07T10:22:25.834Z,1.43
2022-09-07T10:24:53.176Z,1.30
2022-09-07T10:27:27.841Z,1.30
2022-09-07T10:29:55.384Z,1.23
2022-09-07T10:32:41.239Z,1.20
2022-09-07T10:35:14.768Z,1.17
2022-09-07T10:37:56.496Z,1.30
2022-09-07T10:40:29.344Z,1.23
2022-09-07T10:43:23.516Z,1.30
2022-09-07T10:46:00.238Z,1.13
2022-09-07T10:48:35.514Z,1.20
2022-09-07T10:51:13.451Z,1.07
2022-09-07T10:53:42.492Z,1.37
2022-09-07T10:56:20.478Z,1.30
2022-09-07T10:59:01.806Z,1.03
2022-09-07T11:01:48.438Z,1.00
2022-09-07T11:04:18.541Z,1.00
2022-09-07T11:06:48.987Z,1.13
2022-09-07T11:09:17.617Z,1.10
2022-09-07T11:12:04.418Z,1.03
2022-09-07T11:14:33.930Z,1.20
2022-09-07T11:17:06.685Z,0.90
2022-09-07T11:19:46.984Z,1.20
2022-09-07T11:22:23.481Z,0.80
2022-09-07T11:27:58.430Z,1.00
2022-09-07T11:30:29.478Z,1.20
2022-09-07T11:33:05.935Z,1.10
2022-09-07T11:35:42.513Z,1.23
2022-09-07T11:38:25.741Z,1.40
2022-09-07T11:41:11.640Z,1.27
2022-09-07T11:43:42.529Z,1.10
2022-09-07T11:46:15.879Z,1.10
2022-09-07T11:48:56.461Z,1.23
2022-09-07T11:51:41.211Z,1.20
2022-09-07T11:54:28.727Z,1.27
2022-09-07T11:57:05.120Z,1.10
2022-09-07T11:59:36.987Z,1.17
2022-09-07T12:02:13.836Z,1.20
2022-09-07T12:04:47.073Z,1.50
2022-09-07T12:07:33.121Z,1.60
2022-09-07T12:10:00.394Z,1.20
2022-09-07T12:12:46.473Z,1.30
2022-09-07T12:15:27.429Z,1.13
2022-09-07T12:18:13.579Z,1.50
2022-09-07T12:20:47.831Z,1.37
2022-09-07T12:23:18.285Z,1.33
2022-09-07T12:25:46.724Z,1.23
2022-09-07T12:28:23.078Z,1.00
2022-09-07T12:31:04.587Z,1.37
2022-09-07T12:33:33.629Z,1.10
2022-09-07T12:36:02.029Z,1.17
2022-09-07T12:38:32.399Z,1.20
2022-09-07T12:41:03.911Z,1.17
2022-09-07T12:43:32.465Z,1.00
2022-09-07T12:46:00.917Z,1.10
2022-09-07T12:48:28.299Z,1.23
2022-09-07T12:51:04.511Z,1.30
2022-09-07T12:53:49.238Z,0.90
2022-09-07T12:56:35.454Z,1.00
2022-09-07T12:59:25.987Z,0.90
2022-09-07T13:01:56.544Z,1.10
2022-09-07T13:04:33.308Z,1.50
2022-09-07T13:07:19.285Z,1.23
2022-09-07T13:09:57.556Z,1.17
2022-09-07T13:15:55.552Z,1.10
2022-09-07T13:18:28.925Z,1.10
2022-09-07T13:21:08.351Z,1.27
2022-09-07T13:23:37.839Z,1.20
2022-09-07T13:26:07.210Z,1.10
2022-09-07T13:28:40.308Z,0.93
2022-09-07T13:31:26.515Z,1.47
2022-09-07T13:33:54.658Z,1.27
2022-09-07T13:36:22.030Z,1.53
2022-09-07T13:38:51.065Z,1.20
2022-09-07T13:41:20.243Z,1.10
2022-09-07T13:43:48.984Z,1.17
2022-09-07T13:46:32.719Z,1.13
2022-09-07T13:49:18.921Z,1.00
2022-09-07T13:51:52.897Z,0.90
2022-09-07T13:54:39.625Z,1.20
2022-09-07T13:57:16.114Z,1.20
2022-09-07T13:59:43.584Z,0.90
2022-09-07T14:02:23.206Z,1.20
2022-09-07T14:04:52.105Z,1.20
2022-09-07T14:07:23.750Z,1.10
2022-09-07T14:10:04.279Z,1.27
2022-09-07T14:12:31.730Z,1.37
2022-09-07T14:15:09.411Z,1.50
2022-09-07T14:17:36.852Z,1.10
2022-09-07T14:20:05.652Z,1.10
2022-09-07T14:22:35.066Z,1.27
2022-09-07T14:25:03.152Z,1.20
2022-09-07T14:27:43.883Z,1.23
2022-09-07T14:30:20.390Z,1.40
2022-09-07T14:32:48.478Z,1.50
2022-09-07T14:35:20.520Z,1.20
2022-09-07T14:37:48.752Z,1.10
2022-09-07T14:40:17.309Z,1.30
2022-09-07T14:42:45.682Z,1.00
2022-09-07T14:45:18.301Z,1.30
2022-09-07T14:47:46.877Z,1.30
2022-09-07T14:50:34.414Z,1.20
2022-09-07T14:56:00.806Z,1.37
2022-09-07T14:58:31.388Z,1.20
2022-09-07T15:04:16.733Z,1.07
2022-09-07T15:07:02.310Z,1.20
2022-09-07T15:09:35.587Z,1.20
2022-09-07T15:12:03.997Z,1.27
2022-09-07T15:14:31.295Z,1.20
2022-09-07T15:19:50.202Z,1.30
2022-09-07T15:22:18.536Z,1.17
2022-09-07T15:24:49.498Z,1.30
2022-09-07T15:27:35.254Z,1.10
2022-09-07T15:30:02.549Z,1.40
2022-09-07T15:32:29.859Z,1.20
2022-09-07T15:34:57.191Z,1.40
2022-09-07T15:40:15.121Z,1.40
2022-09-07T15:45:29.851Z,1.10
2022-09-07T15:47:57.197Z,1.03
2022-09-07T15:50:24.466Z,1.20
2022-09-07T15:52:51.853Z,1.30
2022-09-07T15:55:19.170Z,1.20
2022-09-07T15:57:54.481Z,1.27
2022-09-07T16:00:27.079Z,1.13
2022-09-07T16:03:09.861Z,1.10
2022-09-07T16:05:40.622Z,1.23
2022-09-07T16:10:56.314Z,1.50
2022-09-07T16:13:31.768Z,1.07
2022-09-07T16:15:59.997Z,1.40
2022-09-07T16:18:31.273Z,1.27
2022-09-07T16:21:04.487Z,1.10
2022-09-07T16:23:31.886Z,1.17
2022-09-07T16:26:00.323Z,1.40
2022-09-07T16:28:27.977Z,0.90
2022-09-07T16:30:56.222Z,1.20
2022-09-07T16:33:34.350Z,1.10
2022-09-07T16:36:09.187Z,1.00
2022-09-07T16:38:44.679Z,1.20
2022-09-07T16:41:20.652Z,1.10
2022-09-07T16:43:48.146Z,0.90
2022-09-07T16:46:16.997Z,1.10
2022-09-07T16:48:44.792Z,1.30
2022-09-07T16:51:13.241Z,1.03
2022-09-07T16:53:40.686Z,1.13
2022-09-07T16:56:09.490Z,1.63
2022-09-07T16:58:38.763Z,0.93
2022-09-07T17:01:07.210Z,0.97
2022-09-07T17:03:35.489Z,1.07
2022-09-07T17:06:03.428Z,0.90
2022-09-07T17:08:30.791Z,1.07
2022-09-07T17:11:05.835Z,1.00
2022-09-07T17:13:33.953Z,1.10
2022-09-07T17:16:08.888Z,1.00
2022-09-07T17:21:24.157Z,1.17
2022-09-07T17:23:55.533Z,1.10
2022-09-07T17:26:26.430Z,1.00
2022-09-07T17:28:55.169Z,1.03
2022-09-07T17:34:13.261Z,1.10
2022-09-07T17:36:40.897Z,1.27
2022-09-07T17:39:17.308Z,1.27
2022-09-07T17:41:45.284Z,1.10
2022-09-07T17:44:12.584Z,1.00
2022-09-07T17:46:39.915Z,1.00
2022-09-07T17:49:08.752Z,1.10
2022-09-07T17:51:36.478Z,1.10
2022-09-07T17:54:09.601Z,1.00
2022-09-07T17:56:37.626Z,1.10
2022-09-07T18:01:54.069Z,1.07
2022-09-07T18:04:22.148Z,1.10
2022-09-07T18:06:49.712Z,1.20
2022-09-07T18:09:17.372Z,1.00
2022-09-07T18:11:46.197Z,1.00
2022-09-07T18:14:15.009Z,1.20
2022-09-07T18:16:43.387Z,0.80
2022-09-07T18:19:11.241Z,1.00
2022-09-07T18:21:40.793Z,1.37
2022-09-07T18:24:13.601Z,1.50
2022-09-07T18:26:41.500Z,1.00
2022-09-07T18:29:19.236Z,1.17
2022-09-07T18:31:55.317Z,1.30
2022-09-07T18:34:23.172Z,1.00
2022-09-07T18:36:50.784Z,1.03
2022-09-07T18:39:18.253Z,1.03
2022-09-07T18:41:45.803Z,0.93
2022-09-07T18:47:00.636Z,1.30
2022-09-07T18:49:27.897Z,1.17
2022-09-07T18:54:42.758Z,0.90
2022-09-07T18:57:10.045Z,0.93
2022-09-07T18:59:37.356Z,1.10
2022-09-07T19:02:07.972Z,1.00
2022-09-07T19:07:26.205Z,0.90
2022-09-07T19:09:56.921Z,1.10
2022-09-07T19:12:24.379Z,0.90
2022-09-07T19:14:51.957Z,1.10
2022-09-07T19:17:19.872Z,1.23
2022-09-07T19:19:48.372Z,1.10
2022-09-07T19:22:15.663Z,1.30
2022-09-07T19:24:42.945Z,1.27
2022-09-07T19:27:10.246Z,1.20
2022-09-07T19:29:37.510Z,0.90
2022-09-07T19:32:05.004Z,1.10
2022-09-07T19:34:32.288Z,0.90
2022-09-07T19:36:59.609Z,1.53
2022-09-07T19:39:27.004Z,0.90
2022-09-07T19:41:54.410Z,1.10
2022-09-07T19:44:21.695Z,1.20
2022-09-07T19:46:49.399Z,1.00
2022-09-07T19:49:17.028Z,1.27
2022-09-07T19:51:44.376Z,1.30
2022-09-07T19:54:12.586Z,1.30
2022-09-07T19:56:40.909Z,0.93
2022-09-07T19:59:08.871Z,1.20
2022-09-07T20:01:36.480Z,1.13
2022-09-07T20:04:05.572Z,1.00
2022-09-07T20:06:33.642Z,1.20
2022-09-07T20:09:01.376Z,1.40
2022-09-07T20:11:29.128Z,1.37
2022-09-07T20:13:59.530Z,1.50
2022-09-07T20:16:28.071Z,1.10
2022-09-07T20:18:55.483Z,1.23
2022-09-07T20:21:23.666Z,1.10
2022-09-07T20:23:51.026Z,1.07
2022-09-07T20:26:19.765Z,1.60
2022-09-07T20:28:47.227Z,1.50
2022-09-07T20:31:15.431Z,1.80
2022-09-07T20:33:43.193Z,1.23
2022-09-07T20:36:12.137Z,1.20
2022-09-07T20:38:43.287Z,1.10
2022-09-07T20:41:14.436Z,1.23
2022-09-07T20:43:41.765Z,1.10
2022-09-07T20:46:12.158Z,1.03
2022-09-07T20:48:39.805Z,1.10
2022-09-07T20:51:09.532Z,1.30
2022-09-07T20:53:37.385Z,1.10
2022-09-07T20:56:06.336Z,1.30
2022-09-07T20:58:34.217Z,1.07
2022-09-07T21:01:01.942Z,1.23
2022-09-07T21:03:29.297Z,1.20
2022-09-07T21:05:56.760Z,1.57
2022-09-07T21:08:24.052Z,1.23
2022-09-07T21:10:51.351Z,1.40
2022-09-07T21:13:18.613Z,1.13
2022-09-07T21:15:45.916Z,1.13
2022-09-07T21:18:15.325Z,1.10
2022-09-07T21:21:18.466Z,1.20
2022-09-07T21:23:43.103Z,1.97
2022-09-07T21:26:10.471Z,1.40
2022-09-07T21:28:37.771Z,1.40
2022-09-07T21:31:06.811Z,1.40
2022-09-07T21:33:35.508Z,1.50
2022-09-07T21:36:06.934Z,1.50
2022-09-07T21:38:35.138Z,1.30
2022-09-07T21:41:12.788Z,1.23
2022-09-07T21:43:40.428Z,1.30
2022-09-07T21:46:11.502Z,1.37
2022-09-07T21:48:39.288Z,1.40
2022-09-07T21:51:06.852Z,1.80
2022-09-07T21:53:34.635Z,1.17
2022-09-07T21:56:03.311Z,1.20
2022-09-07T21:58:30.975Z,1.00
2022-09-07T22:00:58.525Z,1.07
2022-09-07T22:03:26.001Z,1.50
2022-09-07T22:05:53.762Z,1.23
2022-09-07T22:08:21.045Z,1.60
2022-09-07T22:10:48.615Z,1.30
2022-09-07T22:13:15.905Z,1.40
2022-09-07T22:15:43.295Z,1.30
2022-09-07T22:18:13.806Z,1.57
2022-09-07T22:20:41.208Z,1.27
2022-09-07T22:23:08.524Z,1.17
2022-09-07T22:25:35.887Z,1.33
2022-09-07T22:28:03.311Z,1.27
2022-09-07T22:30:30.635Z,1.40
2022-09-07T22:32:58.481Z,1.20
2022-09-07T22:35:25.802Z,1.40
2022-09-07T22:37:53.050Z,1.50
2022-09-07T22:40:20.366Z,1.30
2022-09-07T22:42:47.672Z,1.20
2022-09-07T22:45:14.978Z,1.30
2022-09-07T22:47:43.315Z,1.10
2022-09-07T22:50:11.516Z,1.13
2022-09-07T22:52:38.817Z,1.30
2022-09-07T22:55:06.352Z,1.50
2022-09-07T22:57:33.748Z,1.20
2022-09-07T23:00:01.023Z,1.93
2022-09-07T23:02:28.382Z,1.37
2022-09-07T23:04:55.721Z,1.50
2022-09-07T23:07:23.412Z,1.30
2022-09-07T23:09:50.750Z,1.83
2022-09-07T23:12:18.288Z,1.10
2022-09-07T23:14:45.590Z,1.70
2022-09-07T23:17:12.961Z,1.57
2022-09-07T23:19:40.222Z,1.50
2022-09-07T23:22:07.807Z,1.50
2022-09-07T23:24:35.321Z,1.20
2022-09-07T23:27:02.588Z,1.50
2022-09-07T23:29:29.879Z,1.03
2022-09-07T23:31:57.147Z,1.17
2022-09-07T23:34:24.427Z,1.33
2022-09-07T23:36:51.782Z,1.30
2022-09-07T23:39:19.139Z,1.20
2022-09-07T23:41:46.410Z,1.10
2022-09-07T23:44:14.070Z,1.40
2022-09-07T23:46:41.449Z,1.50
2022-09-07T23:49:08.776Z,1.17
2022-09-07T23:51:36.110Z,1.20
2022-09-07T23:54:03.447Z,1.23
2022-09-07T23:56:32.185Z,1.27
2022-09-07T23:59:00.007Z,1.00
